Liberty of The Seas — C6VQ8 — position and weather

sailwx.info

Track history (hours):
 
Tides and Currents Weather Stations Pressure Air Temp Water Temp Dewpoint Dewpoint Depression Visibility Wind Speed Wind Dir Waves Ship Positions

Liberty of The Seas

Last reported at 2018-Feb-21 11:00 UTC. Time now 2018-Feb-22 08:50 UTC.
Position N 19°36' W 082°42'.

Type: Passenger vessel. MMSI: 309436000.

Wind from 090 at 29 knots

Barometer 1019.0 mb
Air temperature 26.0 ° C
Visibility: greater than 10.8 NM
Dewpoint 23.1 ° C
Water temperature 25.0 ° C

Date/timePositionNaut miles runAvg speedWind from/ knotsBaromVisibWave heightAir tempDewpointWater temp
2018-Feb-21 11:00N 19°36' W 082°42'24521.9 090 / 291019.010.8 26.023.125.0
2018-Feb-20 23:49N 20°36' W 086°55'620.6
2018-Feb-20 23:30N 20°30' W 086°59'1 2.8
2018-Feb-20 23:00N 20°29' W 086°59'0 0.0
2018-Feb-20 22:29N 20°29' W 086°59'0 0.0
2018-Feb-20 21:59N 20°29' W 086°59'0 0.0
2018-Feb-20 21:29N 20°29' W 086°59'0 0.0
2018-Feb-20 20:59N 20°29' W 086°59'0 0.0
2018-Feb-20 20:29N 20°29' W 086°59'0 0.0
2018-Feb-20 19:59N 20°29' W 086°59'0 0.0
2018-Feb-20 19:29N 20°29' W 086°59'0 0.0
2018-Feb-20 18:59N 20°29' W 086°59'0 0.0
2018-Feb-20 18:29N 20°29' W 086°59'0 0.0
2018-Feb-20 17:59N 20°29' W 086°59'0 0.0
2018-Feb-20 17:29N 20°29' W 086°59'0 0.0
2018-Feb-20 16:59N 20°29' W 086°59'0 0.0
2018-Feb-20 16:29N 20°29' W 086°59'0 0.0
2018-Feb-20 15:59N 20°29' W 086°59'0 0.0
2018-Feb-20 15:29N 20°29' W 086°59'0 0.0
2018-Feb-20 14:56N 20°29' W 086°59'0 0.0
2018-Feb-20 14:29N 20°29' W 086°59'0 0.0
2018-Feb-20 13:56N 20°29' W 086°59'2 4.3
2018-Feb-20 13:30N 20°31' W 086°59'918.3
2018-Feb-20 13:00N 20°39' W 086°53'51219.7
2018-Feb-19 11:00N 27°36' W 092°18'6325.7 190 / 191017.010.8 22.020.521.0
2018-Feb-19 08:32N 28°22' W 093°07'120.9
2018-Feb-19 08:30N 28°22' W 093°07'1120.9
2018-Feb-19 08:00N 28°28' W 093°17'1020.9
2018-Feb-19 07:30N 28°34' W 093°27'1020.9
2018-Feb-19 07:00N 28°41' W 093°36'1020.6
2018-Feb-19 06:30N 28°47' W 093°46'1020.4
2018-Feb-19 06:00N 28°53' W 093°55'918.9
2018-Feb-19 05:30N 28°58' W 094°04'918.3
2018-Feb-19 05:00N 29°03' W 094°13'917.5
2018-Feb-19 04:30N 29°08' W 094°22'713.9
2018-Feb-19 04:00N 29°11' W 094°29'917.4
2018-Feb-19 03:29N 29°17' W 094°36'713.0
2018-Feb-19 02:55N 29°21' W 094°44'4 9.1
2018-Feb-19 02:28N 29°19' W 094°48'0 0.8
2018-Feb-19 01:56N 29°19' W 094°48'0 0.0
2018-Feb-18 19:13N 29°19' W 094°48'1 2.6
2018-Feb-18 19:00N 29°19' W 094°47'2 3.1
2018-Feb-18 18:29N 29°20' W 094°46'712.5
2018-Feb-18 17:57N 29°19' W 094°39'4 7.5
2018-Feb-18 17:26N 29°18' W 094°35'0 0.1
2018-Feb-18 17:00N 29°18' W 094°35'0 0.0
2018-Feb-18 16:29N 29°18' W 094°35'0 0.0
2018-Feb-18 15:59N 29°18' W 094°35'0 0.0
2018-Feb-18 15:21N 29°18' W 094°35'411.3
2018-Feb-18 15:00N 29°18' W 094°30'4439.5 130 / 141020.8 17.017.020.0
2018-Feb-18 14:59N 29°18' W 094°35'0 0.0
2018-Feb-18 13:50N 29°18' W 094°35'0 0.0
2018-Feb-18 13:17N 29°18' W 094°35'0 0.0
2018-Feb-18 10:56N 29°18' W 094°35'1111.1
2018-Feb-18 09:58N 29°11' W 094°25'714.2
2018-Feb-18 09:29N 29°07' W 094°19'1327.1
2018-Feb-18 09:00N 29°00' W 094°06'6676.5 180 / 101019.0 0.1 20.020.020.0
2018-Feb-18 08:59N 29°03' W 094°12'815.2
2018-Feb-18 08:29N 28°59' W 094°05'1016.4
2018-Feb-18 07:53N 28°53' W 093°56'717.7
2018-Feb-18 07:30N 28°49' W 093°50'1017.8
2018-Feb-18 06:56N 28°43' W 093°40'817.8
2018-Feb-18 06:30N 28°38' W 093°33'1417.9
2018-Feb-18 05:45N 28°31' W 093°21'417.9
2018-Feb-18 05:30N 28°28' W 093°17'1017.9
2018-Feb-18 04:59N 28°23' W 093°08'35020.6
2018-Feb-17 12:00N 24°12' W 088°36'23719.4 120 / 121020.010.8 24.017.724.0
2018-Feb-16 23:49N 20°34' W 086°57'515.0
2018-Feb-16 23:30N 20°29' W 086°59'1 1.2
2018-Feb-16 22:55N 20°29' W 086°59'0 0.0
2018-Feb-16 22:28N 20°29' W 086°59'0 0.0
2018-Feb-16 21:58N 20°29' W 086°59'0 0.0
2018-Feb-16 21:28N 20°29' W 086°59'0 0.0
2018-Feb-16 20:58N 20°29' W 086°59'0 0.0
2018-Feb-16 20:25N 20°29' W 086°59'0 0.0
2018-Feb-16 19:58N 20°29' W 086°59'0 0.0
2018-Feb-16 19:28N 20°29' W 086°59'0 0.0
2018-Feb-16 18:58N 20°29' W 086°59'0 0.0
2018-Feb-16 18:28N 20°29' W 086°59'0 0.0
2018-Feb-16 17:55N 20°29' W 086°59'0 0.0
2018-Feb-16 17:28N 20°29' W 086°59'0 0.0
2018-Feb-16 16:52N 20°29' W 086°59'0 0.0
2018-Feb-16 16:25N 20°29' W 086°59'0 0.0
2018-Feb-16 15:52N 20°29' W 086°59'0 0.0
2018-Feb-16 15:28N 20°29' W 086°59'0 0.0
2018-Feb-16 14:55N 20°29' W 086°59'0 0.0
2018-Feb-16 14:25N 20°29' W 086°59'0 0.0
2018-Feb-16 13:58N 20°29' W 086°59'0 0.0
2018-Feb-16 13:28N 20°29' W 086°59'0 0.1
2018-Feb-16 13:01N 20°29' W 086°59'2 3.2
2018-Feb-16 12:31N 20°29' W 087°00'4 7.4
2018-Feb-16 12:00N 20°26' W 087°02'4 8.1
2018-Feb-16 11:31N 20°23' W 087°04'11 7.5
2018-Feb-16 10:00N 20°12' W 087°00'   090 / 231018.810.8 25.018.825.0
2018-Feb-13 10:00N 22°42' W 087°30'53315.9 080 / 221021.510.8 25.023.525.0
2018-Feb-12 00:35N 29°06' W 094°20'214.6
2018-Feb-12 00:28N 29°07' W 094°22'714.3
2018-Feb-11 23:59N 29°10' W 094°29'815.1
2018-Feb-11 23:25N 29°16' W 094°36'512.1
2018-Feb-11 23:00N 29°20' W 094°40'611.4
2018-Feb-11 22:30N 29°20' W 094°47'2 0.2
2018-Feb-11 15:52N 29°19' W 094°48'0 0.0
2018-Feb-11 14:25N 29°19' W 094°48'0 0.0
2018-Feb-11 12:42N 29°19' W 094°48'0 0.0
2018-Feb-11 12:22N 29°19' W 094°48'1 1.6
2018-Feb-11 11:52N 29°19' W 094°47'4 5.6
2018-Feb-11 11:08N 29°21' W 094°43'  
Track history (hours):
 
Tides and Currents Weather Stations Pressure Air Temp Water Temp Dewpoint Dewpoint Depression Visibility Wind Speed Wind Dir Waves Ship Positions

Liberty of The Seas

Last reported at 2018-Feb-21 11:00 UTC. Time now 2018-Feb-22 08:50 UTC.
Position N 19°36' W 082°42'.

Type: Passenger vessel. MMSI: 309436000.

Wind from 090 at 29 knots

Barometer 1019.0 mb
Air temperature 26.0 ° C
Visibility: greater than 10.8 NM
Dewpoint 23.1 ° C
Water temperature 25.0 ° C

Date/timePositionNaut miles runAvg speedWind from/ knotsBaromVisibWave heightAir tempDewpointWater temp
2018-Feb-21 11:00N 19°36' W 082°42'24521.9 090 / 291019.010.8 26.023.125.0
2018-Feb-20 23:49N 20°36' W 086°55'620.6
2018-Feb-20 23:30N 20°30' W 086°59'1 2.8
2018-Feb-20 23:00N 20°29' W 086°59'0 0.0
2018-Feb-20 22:29N 20°29' W 086°59'0 0.0
2018-Feb-20 21:59N 20°29' W 086°59'0 0.0
2018-Feb-20 21:29N 20°29' W 086°59'0 0.0
2018-Feb-20 20:59N 20°29' W 086°59'0 0.0
2018-Feb-20 20:29N 20°29' W 086°59'0 0.0
2018-Feb-20 19:59N 20°29' W 086°59'0 0.0
2018-Feb-20 19:29N 20°29' W 086°59'0 0.0
2018-Feb-20 18:59N 20°29' W 086°59'0 0.0
2018-Feb-20 18:29N 20°29' W 086°59'0 0.0
2018-Feb-20 17:59N 20°29' W 086°59'0 0.0
2018-Feb-20 17:29N 20°29' W 086°59'0 0.0
2018-Feb-20 16:59N 20°29' W 086°59'0 0.0
2018-Feb-20 16:29N 20°29' W 086°59'0 0.0
2018-Feb-20 15:59N 20°29' W 086°59'0 0.0
2018-Feb-20 15:29N 20°29' W 086°59'0 0.0
2018-Feb-20 14:56N 20°29' W 086°59'0 0.0
2018-Feb-20 14:29N 20°29' W 086°59'0 0.0
2018-Feb-20 13:56N 20°29' W 086°59'2 4.3
2018-Feb-20 13:30N 20°31' W 086°59'918.3
2018-Feb-20 13:00N 20°39' W 086°53'51219.7
2018-Feb-19 11:00N 27°36' W 092°18'6325.7 190 / 191017.010.8 22.020.521.0
2018-Feb-19 08:32N 28°22' W 093°07'120.9
2018-Feb-19 08:30N 28°22' W 093°07'1120.9
2018-Feb-19 08:00N 28°28' W 093°17'1020.9
2018-Feb-19 07:30N 28°34' W 093°27'1020.9
2018-Feb-19 07:00N 28°41' W 093°36'1020.6
2018-Feb-19 06:30N 28°47' W 093°46'1020.4
2018-Feb-19 06:00N 28°53' W 093°55'918.9
2018-Feb-19 05:30N 28°58' W 094°04'918.3
2018-Feb-19 05:00N 29°03' W 094°13'917.5
2018-Feb-19 04:30N 29°08' W 094°22'713.9
2018-Feb-19 04:00N 29°11' W 094°29'917.4
2018-Feb-19 03:29N 29°17' W 094°36'713.0
2018-Feb-19 02:55N 29°21' W 094°44'4 9.1
2018-Feb-19 02:28N 29°19' W 094°48'0 0.8
2018-Feb-19 01:56N 29°19' W 094°48'0 0.0
2018-Feb-18 19:13N 29°19' W 094°48'1 2.6
2018-Feb-18 19:00N 29°19' W 094°47'2 3.1
2018-Feb-18 18:29N 29°20' W 094°46'712.5
2018-Feb-18 17:57N 29°19' W 094°39'4 7.5
2018-Feb-18 17:26N 29°18' W 094°35'0 0.1
2018-Feb-18 17:00N 29°18' W 094°35'0 0.0
2018-Feb-18 16:29N 29°18' W 094°35'0 0.0
2018-Feb-18 15:59N 29°18' W 094°35'0 0.0
2018-Feb-18 15:21N 29°18' W 094°35'411.3
2018-Feb-18 15:00N 29°18' W 094°30'4439.5 130 / 141020.8 17.017.020.0
2018-Feb-18 14:59N 29°18' W 094°35'0 0.0
2018-Feb-18 13:50N 29°18' W 094°35'0 0.0
2018-Feb-18 13:17N 29°18' W 094°35'0 0.0
2018-Feb-18 10:56N 29°18' W 094°35'1111.1
2018-Feb-18 09:58N 29°11' W 094°25'714.2
2018-Feb-18 09:29N 29°07' W 094°19'1327.1
2018-Feb-18 09:00N 29°00' W 094°06'6676.5 180 / 101019.0 0.1 20.020.020.0
2018-Feb-18 08:59N 29°03' W 094°12'815.2
2018-Feb-18 08:29N 28°59' W 094°05'1016.4
2018-Feb-18 07:53N 28°53' W 093°56'717.7
2018-Feb-18 07:30N 28°49' W 093°50'1017.8
2018-Feb-18 06:56N 28°43' W 093°40'817.8
2018-Feb-18 06:30N 28°38' W 093°33'1417.9
2018-Feb-18 05:45N 28°31' W 093°21'417.9
2018-Feb-18 05:30N 28°28' W 093°17'1017.9
2018-Feb-18 04:59N 28°23' W 093°08'35020.6
2018-Feb-17 12:00N 24°12' W 088°36'23719.4 120 / 121020.010.8 24.017.724.0
2018-Feb-16 23:49N 20°34' W 086°57'515.0
2018-Feb-16 23:30N 20°29' W 086°59'1 1.2
2018-Feb-16 22:55N 20°29' W 086°59'0 0.0
2018-Feb-16 22:28N 20°29' W 086°59'0 0.0
2018-Feb-16 21:58N 20°29' W 086°59'0 0.0
2018-Feb-16 21:28N 20°29' W 086°59'0 0.0
2018-Feb-16 20:58N 20°29' W 086°59'0 0.0
2018-Feb-16 20:25N 20°29' W 086°59'0 0.0
2018-Feb-16 19:58N 20°29' W 086°59'0 0.0
2018-Feb-16 19:28N 20°29' W 086°59'0 0.0
2018-Feb-16 18:58N 20°29' W 086°59'0 0.0
2018-Feb-16 18:28N 20°29' W 086°59'0 0.0
2018-Feb-16 17:55N 20°29' W 086°59'0 0.0
2018-Feb-16 17:28N 20°29' W 086°59'0 0.0
2018-Feb-16 16:52N 20°29' W 086°59'0 0.0
2018-Feb-16 16:25N 20°29' W 086°59'0 0.0
2018-Feb-16 15:52N 20°29' W 086°59'0 0.0
2018-Feb-16 15:28N 20°29' W 086°59'0 0.0
2018-Feb-16 14:55N 20°29' W 086°59'0 0.0
2018-Feb-16 14:25N 20°29' W 086°59'0 0.0
2018-Feb-16 13:58N 20°29' W 086°59'0 0.0
2018-Feb-16 13:28N 20°29' W 086°59'0 0.1
2018-Feb-16 13:01N 20°29' W 086°59'2 3.2
2018-Feb-16 12:31N 20°29' W 087°00'4 7.4
2018-Feb-16 12:00N 20°26' W 087°02'4 8.1
2018-Feb-16 11:31N 20°23' W 087°04'11 7.5
2018-Feb-16 10:00N 20°12' W 087°00'   090 / 231018.810.8 25.018.825.0
2018-Feb-13 10:00N 22°42' W 087°30'53315.9 080 / 221021.510.8 25.023.525.0
2018-Feb-12 00:35N 29°06' W 094°20'214.6
2018-Feb-12 00:28N 29°07' W 094°22'714.3
2018-Feb-11 23:59N 29°10' W 094°29'815.1
2018-Feb-11 23:25N 29°16' W 094°36'512.1
2018-Feb-11 23:00N 29°20' W 094°40'611.4
2018-Feb-11 22:30N 29°20' W 094°47'2 0.2
2018-Feb-11 15:52N 29°19' W 094°48'0 0.0
2018-Feb-11 14:25N 29°19' W 094°48'0 0.0
2018-Feb-11 12:42N 29°19' W 094°48'0 0.0
2018-Feb-11 12:22N 29°19' W 094°48'1 1.6
2018-Feb-11 11:52N 29°19' W 094°47'4 5.6
2018-Feb-11 11:08N 29°21' W 094°43'  

Dump ship's entire track history